createdAt,value
2019-02-08T00:01:53.660Z,16.37
2019-02-08T00:04:34.610Z,15.70
2019-02-08T00:07:15.336Z,16.83
2019-02-08T00:09:54.626Z,18.33
2019-02-08T00:12:42.845Z,17.80
2019-02-08T00:15:30.952Z,19.17
2019-02-08T00:18:19.052Z,16.90
2019-02-08T00:21:07.222Z,17.87
2019-02-08T00:23:55.408Z,16.93
2019-02-08T00:26:43.597Z,17.23
2019-02-08T00:29:31.766Z,17.17
2019-02-08T00:32:19.887Z,17.23
2019-02-08T00:35:08.094Z,17.60
2019-02-08T00:37:56.128Z,18.47
2019-02-08T00:40:44.300Z,16.73
2019-02-08T00:43:32.511Z,18.00
2019-02-08T00:46:20.771Z,17.93
2019-02-08T00:49:08.966Z,19.30
2019-02-08T00:51:57.140Z,17.83
2019-02-08T00:54:45.237Z,19.30
2019-02-08T00:57:33.408Z,18.37
2019-02-08T01:00:42.188Z,19.07
2019-02-08T01:03:30.225Z,19.33
2019-02-08T01:05:59.194Z,18.10
2019-02-08T01:08:40.181Z,20.30
2019-02-08T01:11:21.013Z,19.43
2019-02-08T01:14:01.606Z,20.77
2019-02-08T01:16:42.505Z,19.53
2019-02-08T01:19:23.835Z,20.43
2019-02-08T01:22:03.123Z,20.20
2019-02-08T01:24:51.537Z,19.63
2019-02-08T01:27:39.715Z,20.07
2019-02-08T01:30:28.278Z,19.73
2019-02-08T01:33:16.477Z,19.10
2019-02-08T01:36:04.588Z,19.30
2019-02-08T01:38:52.670Z,20.20
2019-02-08T01:41:40.758Z,20.67
2019-02-08T01:44:21.442Z,20.30
2019-02-08T01:47:02.038Z,18.50
2019-02-08T01:49:42.641Z,20.00
2019-02-08T01:52:22.986Z,19.83
2019-02-08T01:55:03.884Z,20.00
2019-02-08T01:57:44.346Z,19.33
2019-02-08T02:00:25.116Z,20.27
2019-02-08T02:03:06.405Z,18.73
2019-02-08T02:05:47.177Z,19.57
2019-02-08T02:08:28.421Z,18.50
2019-02-08T02:11:09.140Z,17.63
2019-02-08T02:13:49.580Z,18.60
2019-02-08T02:16:30.175Z,18.77
2019-02-08T02:19:11.043Z,18.90
2019-02-08T02:21:39.932Z,19.77
2019-02-08T02:24:28.111Z,19.03
2019-02-08T02:27:16.201Z,19.00
2019-02-08T02:33:32.851Z,17.80
2019-02-08T02:36:20.876Z,20.13
2019-02-08T02:39:09.167Z,18.07
2019-02-08T02:41:57.287Z,17.13
2019-02-08T02:44:45.358Z,18.80
2019-02-08T02:47:33.436Z,18.50
2019-02-08T02:50:14.403Z,19.10
2019-02-08T02:52:54.929Z,17.70
2019-02-08T02:58:18.348Z,19.00
2019-02-08T03:00:59.677Z,18.73
2019-02-08T03:03:40.345Z,19.20
2019-02-08T03:06:21.071Z,19.03
2019-02-08T03:09:01.839Z,17.87
2019-02-08T03:11:42.644Z,18.30
2019-02-08T03:14:23.528Z,17.27
2019-02-08T03:17:04.763Z,18.53
2019-02-08T03:19:45.453Z,16.83
2019-02-08T03:22:26.168Z,17.27
2019-02-08T03:25:06.866Z,16.90
2019-02-08T03:27:48.301Z,17.73
2019-02-08T03:33:11.566Z,16.97
2019-02-08T03:35:40.469Z,17.53
2019-02-08T03:38:09.537Z,18.00
2019-02-08T03:40:57.618Z,17.63
2019-02-08T03:43:26.502Z,19.00
2019-02-08T03:45:55.565Z,17.03
2019-02-08T03:48:24.627Z,16.73
2019-02-08T03:50:53.726Z,18.10
2019-02-08T03:53:22.663Z,16.17
2019-02-08T03:55:58.167Z,16.00
2019-02-08T03:58:22.261Z,16.13
2019-02-08T04:03:46.557Z,16.67
2019-02-08T04:06:15.472Z,16.40
2019-02-08T04:08:44.291Z,16.97
2019-02-08T04:11:13.252Z,17.20
2019-02-08T04:14:01.392Z,18.63
2019-02-08T04:16:49.506Z,17.33
2019-02-08T04:19:37.635Z,17.13
2019-02-08T04:22:25.659Z,16.00
2019-02-08T04:25:14.357Z,16.83
2019-02-08T04:28:02.417Z,17.83
2019-02-08T04:30:50.479Z,15.80
2019-02-08T04:33:38.621Z,17.20
2019-02-08T04:36:26.665Z,16.63
2019-02-08T04:39:14.802Z,16.60
2019-02-08T04:42:02.866Z,17.80
2019-02-08T04:44:50.993Z,17.53
2019-02-08T04:47:39.128Z,17.87
2019-02-08T04:50:27.334Z,16.30
2019-02-08T04:53:15.592Z,16.20
2019-02-08T04:56:03.664Z,15.90
2019-02-08T04:58:51.782Z,17.27
2019-02-08T05:01:39.985Z,16.77
2019-02-08T05:04:28.072Z,16.10
2019-02-08T05:07:23.319Z,17.00
2019-02-08T05:10:11.744Z,16.27
2019-02-08T05:12:59.962Z,15.83
2019-02-08T05:15:48.051Z,15.97
2019-02-08T05:18:36.206Z,16.23
2019-02-08T05:21:24.265Z,14.77
2019-02-08T05:24:12.332Z,15.17
2019-02-08T05:27:00.344Z,14.70
2019-02-08T05:29:48.400Z,14.87
2019-02-08T05:32:36.414Z,15.60
2019-02-08T05:35:24.518Z,15.97
2019-02-08T05:38:12.671Z,15.00
2019-02-08T05:41:00.875Z,14.97
2019-02-08T05:43:48.914Z,14.60
2019-02-08T05:46:31.074Z,15.57
2019-02-08T05:49:12.528Z,14.40
2019-02-08T05:51:53.506Z,15.20
2019-02-08T05:54:34.626Z,14.33
2019-02-08T05:57:15.172Z,14.57
2019-02-08T05:59:55.612Z,13.87
2019-02-08T06:02:36.915Z,15.23
2019-02-08T06:05:17.408Z,14.43
2019-02-08T06:07:58.663Z,14.50
2019-02-08T06:10:39.110Z,14.57
2019-02-08T06:13:19.819Z,13.60
2019-02-08T06:16:00.197Z,14.67
2019-02-08T06:18:40.672Z,13.63
2019-02-08T06:21:21.517Z,15.23
2019-02-08T06:24:02.121Z,13.83
2019-02-08T06:26:42.679Z,14.90
2019-02-08T06:29:23.289Z,15.00
2019-02-08T06:32:04.006Z,14.80
2019-02-08T06:34:44.761Z,14.10
2019-02-08T06:37:25.595Z,15.37
2019-02-08T06:40:06.482Z,15.13
2019-02-08T06:42:47.030Z,15.10
2019-02-08T06:45:27.959Z,13.90
2019-02-08T06:48:08.764Z,14.17
2019-02-08T06:50:49.560Z,15.00
2019-02-08T06:53:30.234Z,14.53
2019-02-08T06:56:30.085Z,13.93
2019-02-08T07:02:13.801Z,13.63
2019-02-08T07:07:48.129Z,13.30
2019-02-08T07:10:36.199Z,13.20
2019-02-08T07:13:14.907Z,13.33
2019-02-08T07:16:10.707Z,12.03
2019-02-08T07:19:05.511Z,13.80
2019-02-08T07:22:12.667Z,12.43
2019-02-08T07:25:19.833Z,12.37
2019-02-08T07:28:17.010Z,11.80
2019-02-08T07:31:24.291Z,13.00
2019-02-08T07:34:31.485Z,12.40
2019-02-08T07:37:39.013Z,12.57
2019-02-08T07:43:50.437Z,11.30
2019-02-08T07:46:50.589Z,13.00
2019-02-08T07:49:39.483Z,11.77
2019-02-08T07:52:36.859Z,11.20
2019-02-08T07:55:36.843Z,10.27
2019-02-08T07:58:26.887Z,9.80
2019-02-08T08:01:27.110Z,10.87
2019-02-08T08:04:26.599Z,10.10
2019-02-08T08:07:14.909Z,9.70
2019-02-08T08:10:01.832Z,10.10
2019-02-08T08:13:01.797Z,9.70
2019-02-08T08:16:01.530Z,9.40
2019-02-08T08:19:04.957Z,9.17
2019-02-08T08:24:47.531Z,8.43
2019-02-08T08:27:47.741Z,9.93
2019-02-08T08:30:36.174Z,8.90
2019-02-08T08:33:20.121Z,8.50
2019-02-08T08:36:01.562Z,7.90
2019-02-08T08:38:42.759Z,7.87
2019-02-08T08:41:23.321Z,8.33
2019-02-08T08:46:46.945Z,9.70
2019-02-08T08:49:27.943Z,8.53
2019-02-08T08:52:08.590Z,8.07
2019-02-08T08:54:49.283Z,8.33
2019-02-08T08:57:30.090Z,7.70
2019-02-08T09:00:11.342Z,7.10
2019-02-08T09:02:52.351Z,7.30
2019-02-08T09:05:33.326Z,7.40
2019-02-08T09:08:13.860Z,7.57
2019-02-08T09:10:54.475Z,7.17
2019-02-08T09:13:35.266Z,7.00
2019-02-08T09:16:16.355Z,6.00
2019-02-08T09:18:57.164Z,6.70
2019-02-08T09:21:38.096Z,6.17
2019-02-08T09:24:19.438Z,6.07
2019-02-08T09:27:00.335Z,6.23
2019-02-08T09:29:42.653Z,6.70
2019-02-08T09:32:24.078Z,5.30
2019-02-08T09:35:04.992Z,5.77
2019-02-08T09:37:45.829Z,5.77
2019-02-08T09:40:26.663Z,5.30
2019-02-08T09:43:07.542Z,5.40
2019-02-08T09:45:48.494Z,5.23
2019-02-08T09:51:12.040Z,5.70
2019-02-08T09:53:52.461Z,5.20
2019-02-08T09:56:33.120Z,5.00
2019-02-08T09:59:13.700Z,5.07
2019-02-08T10:04:36.249Z,4.53
2019-02-08T10:09:58.686Z,5.10
2019-02-08T10:12:39.073Z,4.10
2019-02-08T10:15:19.858Z,4.93
2019-02-08T10:18:00.214Z,5.43
2019-02-08T10:20:40.926Z,5.13
2019-02-08T10:26:47.976Z,5.47
2019-02-08T10:29:55.254Z,4.93
2019-02-08T10:33:02.592Z,4.57
2019-02-08T10:36:09.866Z,4.53
2019-02-08T10:42:58.850Z,4.10
2019-02-08T10:46:06.233Z,4.60
2019-02-08T10:53:02.926Z,4.30
2019-02-08T10:56:14.980Z,3.73
2019-02-08T10:59:19.165Z,4.53
2019-02-08T11:02:26.430Z,4.83
2019-02-08T11:05:33.791Z,4.30
2019-02-08T11:12:16.150Z,4.20
2019-02-08T11:15:23.411Z,4.37
2019-02-08T11:18:34.202Z,4.10
2019-02-08T11:21:22.318Z,4.70
2019-02-08T11:24:10.509Z,3.70
2019-02-08T11:30:15.032Z,4.43
2019-02-08T11:32:56.049Z,3.80
2019-02-08T11:35:36.851Z,4.10
2019-02-08T11:38:18.009Z,4.73
2019-02-08T11:40:58.930Z,4.17
2019-02-08T11:43:39.570Z,3.90
2019-02-08T11:46:20.225Z,4.20
2019-02-08T11:49:00.854Z,4.47
2019-02-08T11:51:41.298Z,4.00
2019-02-08T11:54:21.813Z,4.33
2019-02-08T11:57:02.220Z,4.80
2019-02-08T11:59:31.164Z,4.43
2019-02-08T12:02:00.135Z,4.57
2019-02-08T12:04:48.285Z,4.63
2019-02-08T12:07:36.512Z,4.33
2019-02-08T12:10:24.607Z,4.57
2019-02-08T12:13:12.627Z,4.17
2019-02-08T12:16:00.757Z,4.57
2019-02-08T12:18:48.817Z,4.60
2019-02-08T12:21:36.944Z,5.33
2019-02-08T12:24:25.130Z,4.73
2019-02-08T12:27:13.203Z,4.07
2019-02-08T12:30:01.275Z,4.50
2019-02-08T12:32:49.332Z,3.73
2019-02-08T12:35:37.385Z,4.50
2019-02-08T12:38:25.529Z,3.83
2019-02-08T12:41:13.609Z,3.17
2019-02-08T12:44:13.567Z,3.80
2019-02-08T12:46:42.593Z,3.77
2019-02-08T12:49:30.624Z,3.83
2019-02-08T12:52:18.718Z,3.40
2019-02-08T12:58:21.321Z,3.50
2019-02-08T13:01:09.439Z,4.37
2019-02-08T13:03:57.528Z,4.40
2019-02-08T13:06:45.750Z,3.83
2019-02-08T13:09:33.792Z,3.83
2019-02-08T13:12:21.819Z,4.13
2019-02-08T13:15:10.272Z,3.80
2019-02-08T13:17:58.295Z,4.20
2019-02-08T13:20:46.396Z,3.73
2019-02-08T13:23:34.450Z,3.60
2019-02-08T13:26:22.590Z,4.13
2019-02-08T13:29:10.718Z,4.23
2019-02-08T13:31:58.828Z,5.00
2019-02-08T13:34:46.893Z,4.33
2019-02-08T13:37:35.629Z,4.27
2019-02-08T13:40:24.011Z,3.73
2019-02-08T13:43:12.070Z,4.40
2019-02-08T13:46:00.210Z,4.57
2019-02-08T13:48:41.586Z,4.70
2019-02-08T13:51:22.923Z,4.30
2019-02-08T13:54:04.228Z,3.83
2019-02-08T13:56:44.826Z,4.10
2019-02-08T13:59:25.720Z,3.60
2019-02-08T14:02:06.392Z,3.80
2019-02-08T14:04:47.264Z,5.23
2019-02-08T14:07:28.649Z,4.03
2019-02-08T14:10:09.756Z,4.40
2019-02-08T14:12:50.323Z,4.03
2019-02-08T14:15:30.904Z,3.90
2019-02-08T14:18:12.188Z,3.77
2019-02-08T14:20:52.996Z,3.90
2019-02-08T14:23:33.524Z,3.50
2019-02-08T14:26:13.972Z,3.10
2019-02-08T14:28:54.636Z,3.47
2019-02-08T14:31:35.496Z,3.30
2019-02-08T14:34:16.308Z,3.37
2019-02-08T14:36:56.942Z,3.27
2019-02-08T14:39:37.832Z,3.67
2019-02-08T14:42:18.763Z,3.37
2019-02-08T14:44:59.312Z,3.10
2019-02-08T14:47:41.949Z,3.20
2019-02-08T14:50:23.045Z,3.70
2019-02-08T14:53:03.440Z,3.50
2019-02-08T14:55:42.626Z,3.00
2019-02-08T14:58:30.735Z,2.80
2019-02-08T15:01:18.796Z,3.03
2019-02-08T15:04:07.690Z,3.60
2019-02-08T15:06:57.004Z,3.50
2019-02-08T15:09:45.094Z,3.40
2019-02-08T15:12:33.186Z,2.97
2019-02-08T15:15:14.066Z,3.90
2019-02-08T15:17:54.761Z,3.80
2019-02-08T15:20:35.541Z,3.60
2019-02-08T15:23:16.410Z,2.80
2019-02-08T15:25:57.113Z,2.60
2019-02-08T15:28:37.915Z,2.57
2019-02-08T15:31:19.202Z,3.70
2019-02-08T15:33:58.434Z,2.50
2019-02-08T15:36:49.224Z,2.77
2019-02-08T15:39:36.394Z,3.03
2019-02-08T15:42:24.459Z,2.30
2019-02-08T15:45:13.858Z,2.33
2019-02-08T15:48:01.988Z,2.50
2019-02-08T15:50:50.079Z,1.97
2019-02-08T15:53:38.221Z,2.63
2019-02-08T15:56:26.409Z,1.80
2019-02-08T15:59:14.647Z,1.90
2019-02-08T16:02:02.793Z,2.33
2019-02-08T16:04:50.922Z,2.00
2019-02-08T16:07:39.075Z,2.50
2019-02-08T16:10:27.267Z,2.70
2019-02-08T16:13:15.377Z,2.80
2019-02-08T16:18:58.651Z,3.07
2019-02-08T16:21:47.446Z,2.63
2019-02-08T16:24:35.607Z,3.07
2019-02-08T16:27:23.734Z,2.40
2019-02-08T16:33:27.757Z,2.97
2019-02-08T16:36:15.872Z,2.90
2019-02-08T16:39:06.625Z,3.00
2019-02-08T16:41:55.147Z,2.87
2019-02-08T16:44:43.327Z,2.93
2019-02-08T16:47:24.364Z,3.10
2019-02-08T16:50:05.179Z,2.60
2019-02-08T16:52:45.805Z,2.90
2019-02-08T16:55:26.515Z,2.60
2019-02-08T16:58:07.164Z,2.80
2019-02-08T17:00:47.651Z,2.97
2019-02-08T17:03:56.328Z,2.50
2019-02-08T17:06:44.711Z,2.27
2019-02-08T17:09:32.797Z,2.77
2019-02-08T17:12:20.852Z,2.20
2019-02-08T17:15:10.051Z,2.60
2019-02-08T17:17:58.313Z,2.50
2019-02-08T17:20:46.794Z,2.20
2019-02-08T17:23:34.857Z,2.43
2019-02-08T17:26:22.874Z,2.27
2019-02-08T17:29:10.915Z,2.80
2019-02-08T17:31:59.017Z,2.90
2019-02-08T17:34:47.086Z,2.77
2019-02-08T17:37:35.155Z,3.07
2019-02-08T17:43:53.068Z,3.60
2019-02-08T17:46:41.744Z,3.97
2019-02-08T17:49:22.615Z,3.30
2019-02-08T17:52:03.088Z,2.77
2019-02-08T17:54:44.004Z,2.70
2019-02-08T17:57:24.811Z,2.90
2019-02-08T18:00:06.100Z,2.80
2019-02-08T18:02:46.481Z,3.27
2019-02-08T18:05:27.184Z,2.90
2019-02-08T18:08:07.615Z,3.30
2019-02-08T18:10:48.254Z,2.93
2019-02-08T18:13:28.737Z,3.00
2019-02-08T18:16:09.326Z,3.73
2019-02-08T18:18:50.298Z,3.23
2019-02-08T18:21:30.849Z,2.70
2019-02-08T18:24:11.774Z,3.23
2019-02-08T18:26:52.532Z,3.10
2019-02-08T18:29:33.315Z,2.60
2019-02-08T18:32:14.130Z,3.47
2019-02-08T18:34:54.864Z,3.20
2019-02-08T18:37:35.504Z,2.80
2019-02-08T18:40:16.169Z,3.00
2019-02-08T18:42:57.194Z,2.80
2019-02-08T18:45:38.098Z,2.60
2019-02-08T18:48:18.763Z,3.43
2019-02-08T18:50:59.574Z,2.90
2019-02-08T18:53:40.288Z,3.63
2019-02-08T18:56:21.282Z,3.60
2019-02-08T18:59:02.155Z,2.97
2019-02-08T19:01:42.648Z,3.87
2019-02-08T19:04:23.523Z,3.10
2019-02-08T19:07:04.359Z,3.00
2019-02-08T19:09:45.053Z,3.77
2019-02-08T19:12:25.880Z,3.50
2019-02-08T19:15:06.952Z,3.10
2019-02-08T19:20:29.466Z,2.87
2019-02-08T19:23:10.160Z,3.80
2019-02-08T19:25:51.100Z,3.33
2019-02-08T19:28:32.088Z,3.63
2019-02-08T19:31:12.937Z,3.13
2019-02-08T19:36:35.921Z,3.47
2019-02-08T19:39:16.962Z,3.57
2019-02-08T19:41:58.054Z,2.90
2019-02-08T19:44:39.205Z,3.50
2019-02-08T19:47:19.934Z,3.90
2019-02-08T19:50:01.151Z,4.00
2019-02-08T19:55:24.699Z,3.90
2019-02-08T19:58:05.232Z,3.10
2019-02-08T20:00:45.682Z,3.60
2019-02-08T20:03:26.523Z,3.60
2019-02-08T20:06:07.037Z,3.30
2019-02-08T20:08:48.182Z,3.67
2019-02-08T20:11:29.315Z,3.20
2019-02-08T20:14:09.748Z,3.23
2019-02-08T20:16:50.425Z,3.07
2019-02-08T20:19:31.701Z,3.20
2019-02-08T20:22:12.517Z,3.70
2019-02-08T20:24:52.975Z,3.10
2019-02-08T20:27:33.993Z,3.50
2019-02-08T20:30:15.345Z,3.90
2019-02-08T20:32:55.720Z,3.17
2019-02-08T20:35:36.212Z,3.40
2019-02-08T20:38:17.015Z,3.90
2019-02-08T20:40:57.517Z,3.37
2019-02-08T20:43:37.989Z,3.57
2019-02-08T20:46:18.409Z,3.43
2019-02-08T20:48:59.883Z,3.13
2019-02-08T20:51:41.117Z,4.53
2019-02-08T20:54:22.069Z,4.27
2019-02-08T20:57:01.485Z,3.47
2019-02-08T20:59:49.628Z,3.50
2019-02-08T21:02:37.739Z,3.67
2019-02-08T21:05:26.211Z,3.77
2019-02-08T21:08:14.820Z,4.10
2019-02-08T21:11:02.931Z,4.30
2019-02-08T21:13:51.055Z,3.70
2019-02-08T21:16:39.211Z,4.73
2019-02-08T21:19:27.297Z,4.53
2019-02-08T21:22:15.349Z,4.67
2019-02-08T21:25:03.813Z,4.90
2019-02-08T21:27:52.000Z,4.77
2019-02-08T21:30:40.227Z,4.30
2019-02-08T21:33:28.295Z,4.93
2019-02-08T21:36:16.405Z,4.60
2019-02-08T21:42:19.551Z,4.90
2019-02-08T21:44:48.619Z,4.83
2019-02-08T21:47:17.671Z,5.00
2019-02-08T21:52:41.739Z,4.77
2019-02-08T21:55:22.474Z,4.90
2019-02-08T21:58:03.421Z,6.00
2019-02-08T22:00:44.588Z,4.73
2019-02-08T22:03:25.286Z,5.77
2019-02-08T22:06:06.459Z,4.70
2019-02-08T22:08:47.127Z,5.10
2019-02-08T22:11:16.043Z,5.07
2019-02-08T22:14:04.457Z,5.60
2019-02-08T22:16:52.619Z,5.37
2019-02-08T22:19:40.662Z,5.50
2019-02-08T22:22:28.746Z,5.53
2019-02-08T22:25:17.223Z,5.30
2019-02-08T22:28:05.408Z,4.97
2019-02-08T22:30:53.610Z,4.60
2019-02-08T22:33:41.683Z,5.37
2019-02-08T22:36:29.745Z,5.13
2019-02-08T22:38:58.651Z,4.90
2019-02-08T22:41:46.796Z,5.07
2019-02-08T22:44:34.845Z,5.20
2019-02-08T22:47:15.604Z,5.40
2019-02-08T22:49:56.026Z,5.80
2019-02-08T22:52:36.904Z,5.53
2019-02-08T22:55:17.453Z,5.63
2019-02-08T22:57:57.896Z,5.60
2019-02-08T23:00:39.657Z,5.90
2019-02-08T23:06:02.456Z,6.53
2019-02-08T23:08:43.310Z,6.10
2019-02-08T23:11:24.300Z,5.67
2019-02-08T23:14:05.379Z,5.83
2019-02-08T23:16:45.844Z,6.67
2019-02-08T23:19:26.246Z,5.67
2019-02-08T23:22:07.014Z,5.93
2019-02-08T23:24:48.214Z,6.47
2019-02-08T23:27:28.938Z,5.83
2019-02-08T23:30:09.960Z,6.30
2019-02-08T23:32:50.812Z,5.67
2019-02-08T23:35:32.224Z,6.53
2019-02-08T23:38:13.140Z,5.73
2019-02-08T23:40:54.160Z,5.57
2019-02-08T23:43:35.451Z,5.37
2019-02-08T23:46:16.452Z,5.57
2019-02-08T23:48:57.075Z,6.20
2019-02-08T23:51:37.526Z,5.50
2019-02-08T23:54:18.238Z,6.27
2019-02-08T23:56:58.560Z,5.33
2019-02-08T23:59:39.420Z,5.57
